Time;durP1;ratioP1;P1;durP2;ratioP2;P2;SDS_P1;SDS_P2;PMS_P1;PMS_P2;Temp;Humidity;BMP_temperature;BMP_pressure;BME280_temperature;BME280_humidity;BME280_pressure;Samples;Min_cycle;Max_cycle;Signal;HPM_P1;HPM_P2
2023/01/19 00:01:49;;;;;;;;;;;;;;;28.01;59.40;101193.94;5079876;27;69165;-37
2023/01/19 00:04:20;;;;;;;;;;;;;;;28.01;58.97;101193.94;5080599;27;66646;-37
2023/01/19 00:06:51;;;;;;;;;;;;;;;28.04;59.08;101198.94;5080643;27;69983;-39
2023/01/19 00:09:22;;;;;;;;;;;;;;;28.04;59.23;101194.38;5079922;27;66971;-38
2023/01/19 00:11:53;;;;;;;;;;;;;;;28.09;59.42;101206.47;5062985;28;69771;-37
2023/01/19 00:14:23;;;;;;;;;;;;;;;27.86;56.50;101204.81;5080345;28;66385;-36
2023/01/19 00:16:55;;;;;;;;;;;;;;;27.65;56.25;101210.13;5082923;27;70060;-35
2023/01/19 00:19:25;;;;;;;;;;;;;;;27.50;56.00;101213.69;5079316;27;66714;-36
2023/01/19 00:21:56;;;;;;;;;;;;;;;27.36;55.94;101222.66;5081036;27;69957;-37
2023/01/19 00:24:27;;;;;;;;;;;;;;;27.28;56.22;101214.69;5081121;27;66132;-34
2023/01/19 00:26:57;;;;;;;;;;;;;;;27.23;56.78;101227.88;5075410;27;69887;-36
2023/01/19 00:29:32;;;;;;;;;;;;;;;27.39;57.91;101233.06;5077492;27;65629;-36
2023/01/19 00:32:04;;;;;;;;;;;;;;;27.52;58.83;101233.19;5082494;27;70018;-36
2023/01/19 00:34:48;;;;;;;;;;;;;;;27.61;59.04;101245.56;5079639;27;66622;-37
2023/01/19 00:37:19;;;;;;;;;;;;;;;27.67;59.27;101245.81;5062587;27;70123;-39
2023/01/19 00:39:50;;;;;;;;;;;;;;;27.68;58.92;101242.91;5079198;27;66882;-37
2023/01/19 00:45:11;;;;;;;;;;;;;;;27.81;58.54;101255.75;5073473;27;66670;-38
2023/01/19 00:47:41;;;;;;;;;;;;;;;27.86;58.54;101250.63;5080083;27;69616;-38
2023/01/19 00:50:13;;;;;;;;;;;;;;;27.91;58.35;101264.34;5060426;27;66755;-37
2023/01/19 00:52:44;;;;;;;;;;;;;;;27.95;58.26;101262.13;5060767;28;70004;-39
2023/01/19 00:55:15;;;;;;;;;;;;;;;27.98;58.50;101259.03;5059222;28;65744;-37
2023/01/19 00:57:46;;;;;;;;;;;;;;;28.00;58.50;101257.81;5077716;27;70115;-36
2023/01/19 01:00:18;;;;;;;;;;;;;;;28.03;58.38;101262.84;5080906;27;67168;-36
2023/01/19 01:02:50;;;;;;;;;;;;;;;28.06;58.80;101261.63;5078241;27;69996;-37
2023/01/19 01:05:21;;;;;;;;;;;;;;;28.08;58.49;101267.63;5077458;28;66422;-38
2023/01/19 01:07:51;;;;;;;;;;;;;;;28.11;58.62;101278.06;5081680;27;69584;-43
2023/01/19 01:10:24;;;;;;;;;;;;;;;28.13;58.73;101261.66;5084178;27;66788;-37
2023/01/19 01:12:55;;;;;;;;;;;;;;;28.15;58.68;101255.06;5076821;27;69839;-37
2023/01/19 01:15:49;;;;;;;;;;;;;;;28.18;58.65;101264.63;5073168;27;66562;-37
2023/01/19 01:18:21;;;;;;;;;;;;;;;28.19;58.58;101272.50;5077050;27;70402;-38
2023/01/19 01:20:51;;;;;;;;;;;;;;;28.22;58.87;101265.91;5077144;27;66749;-36
2023/01/19 01:23:24;;;;;;;;;;;;;;;28.20;58.54;101267.97;5073981;27;69131;-36
2023/01/19 01:25:54;;;;;;;;;;;;;;;28.20;57.95;101273.38;5075032;27;66675;-37
2023/01/19 01:28:25;;;;;;;;;;;;;;;28.17;57.90;101265.66;5074541;27;70246;-36
2023/01/19 01:30:56;;;;;;;;;;;;;;;27.66;57.68;101179.44;5078140;27;67006;-36
2023/01/19 01:33:26;;;;;;;;;;;;;;;28.21;57.55;101270.47;5077107;28;70007;-36
2023/01/19 01:36:10;;;;;;;;;;;;;;;28.23;57.38;101272.97;5080870;27;66543;-36
2023/01/19 01:38:41;;;;;;;;;;;;;;;28.21;56.48;101277.72;5062725;28;69775;-37
2023/01/19 01:41:12;;;;;;;;;;;;;;;28.19;55.11;101277.06;5079136;28;67126;-37
2023/01/19 01:43:47;;;;;;;;;;;;;;;28.16;55.78;101282.84;5073760;27;69741;-37
2023/01/19 01:46:18;;;;;;;;;;;;;;;28.21;56.29;101293.91;5074877;27;67314;-37
2023/01/19 01:48:53;;;;;;;;;;;;;;;28.25;56.73;101297.88;5083553;27;69703;-36
2023/01/19 01:51:25;;;;;;;;;;;;;;;28.29;56.64;101309.97;5074514;27;66941;-42
2023/01/19 01:54:07;;;;;;;;;;;;;;;28.29;56.97;101309.97;5041922;28;70513;-37
2023/01/19 01:56:46;;;;;;;;;;;;;;;28.36;57.37;101315.41;5076144;27;65485;-39
2023/01/19 01:59:28;;;;;;;;;;;;;;;28.37;58.28;101299.06;5076204;27;70364;-37
2023/01/19 02:04:51;;;;;;;;;;;;;;;28.39;59.45;101299.69;5080358;27;69151;-37
2023/01/19 02:13:20;;;;;;;;;;;;;;;28.25;57.29;101304.13;5080636;27;65891;-34
2023/01/19 02:15:52;;;;;;;;;;;;;;;28.17;55.95;101296.16;5080548;27;69735;-35
2023/01/19 02:18:24;;;;;;;;;;;;;;;28.16;55.98;101293.66;5079764;27;66085;-35
2023/01/19 02:21:12;;;;;;;;;;;;;;;28.15;56.00;101292.00;5075006;28;69600;-34
2023/01/19 02:23:48;;;;;;;;;;;;;;;28.14;55.97;101279.50;5080082;27;65835;-34
2023/01/19 02:26:20;;;;;;;;;;;;;;;28.17;56.32;101279.16;5062500;28;69202;-35
2023/01/19 02:29:02;;;;;;;;;;;;;;;28.19;55.81;101271.69;5080793;27;66959;-36
2023/01/19 02:31:34;;;;;;;;;;;;;;;28.20;55.60;101284.16;5081028;27;69739;-36
2023/01/19 02:34:05;;;;;;;;;;;;;;;28.20;55.59;101289.56;5081224;27;67339;-36
2023/01/19 02:36:42;;;;;;;;;;;;;;;28.23;55.51;101289.16;5079609;27;70093;-36
2023/01/19 02:39:14;;;;;;;;;;;;;;;28.23;55.82;101289.16;5077981;27;65957;-35
2023/01/19 02:41:56;;;;;;;;;;;;;;;28.21;55.68;101285.81;5059555;27;68883;-36
2023/01/19 02:44:27;;;;;;;;;;;;;;;28.22;56.11;101276.69;5075127;27;65608;-36
2023/01/19 02:46:57;;;;;;;;;;;;;;;28.25;57.19;101273.59;5077986;28;69889;-40
2023/01/19 02:49:31;;;;;;;;;;;;;;;28.28;58.77;101275.94;5079296;27;65796;-35
2023/01/19 02:52:01;;;;;;;;;;;;;;;28.34;60.34;101275.16;5079561;27;70053;-36
2023/01/19 02:54:37;;;;;;;;;;;;;;;28.40;61.07;101278.94;5079359;27;66035;-37
2023/01/19 02:57:26;;;;;;;;;;;;;;;28.43;61.51;101278.59;5079812;27;70329;-40
2023/01/19 03:00:22;;;;;;;;;;;;;;;28.46;62.60;101268.22;5077027;27;65459;-41
2023/01/19 03:03:05;;;;;;;;;;;;;;;28.50;62.76;101264.13;5072794;27;70640;-38
2023/01/19 03:05:45;;;;;;;;;;;;;;;28.60;64.13;101268.34;5058882;28;67205;-37
2023/01/19 03:08:21;;;;;;;;;;;;;;;28.63;63.56;101246.34;5075891;27;70496;-38
2023/01/19 03:11:03;;;;;;;;;;;;;;;28.66;62.98;101237.88;5078659;27;65604;-37
2023/01/19 03:13:40;;;;;;;;;;;;;;;28.71;63.08;101243.50;5058397;27;69935;-38
2023/01/19 03:16:15;;;;;;;;;;;;;;;28.74;62.67;101232.31;5070661;27;65943;-37
2023/01/19 03:18:51;;;;;;;;;;;;;;;28.86;63.13;101222.66;5051478;28;70098;-37
2023/01/19 03:21:25;;;;;;;;;;;;;;;28.94;62.90;101235.97;5074043;27;66000;-37
2023/01/19 03:23:58;;;;;;;;;;;;;;;28.99;63.40;101234.56;5075471;27;70137;-37
2023/01/19 03:26:31;;;;;;;;;;;;;;;29.03;63.40;101225.00;5076799;27;65559;-38
2023/01/19 03:29:02;;;;;;;;;;;;;;;29.07;62.78;101226.31;5061949;28;70145;-36
2023/01/19 03:31:34;;;;;;;;;;;;;;;29.13;62.37;101225.50;5068007;27;66603;-35
2023/01/19 03:34:10;;;;;;;;;;;;;;;29.20;60.83;101230.94;5079750;27;68972;-35
2023/01/19 03:36:44;;;;;;;;;;;;;;;29.17;61.01;101226.78;5077040;27;66682;-35
2023/01/19 03:39:18;;;;;;;;;;;;;;;29.16;59.78;101222.41;5081221;27;69627;-36
2023/01/19 03:41:51;;;;;;;;;;;;;;;29.16;60.07;101219.69;5079324;27;66213;-35
2023/01/19 03:44:23;;;;;;;;;;;;;;;29.13;57.35;101230.91;5045415;28;69740;-35
2023/01/19 03:46:56;;;;;;;;;;;;;;;29.16;58.42;101230.50;5077621;27;66599;-33
2023/01/19 03:49:27;;;;;;;;;;;;;;;29.20;58.26;101226.38;5073869;27;69808;-34
2023/01/19 03:51:58;;;;;;;;;;;;;;;29.23;58.73;101215.19;5083067;27;66631;-34
2023/01/19 03:54:29;;;;;;;;;;;;;;;29.28;58.85;101220.81;5059957;27;70371;-34
2023/01/19 03:56:59;;;;;;;;;;;;;;;29.31;58.18;101223.13;5078831;27;67409;-34
2023/01/19 03:59:29;;;;;;;;;;;;;;;29.29;58.79;101213.53;5080462;27;69533;-38
2023/01/19 04:02:00;;;;;;;;;;;;;;;29.32;56.71;101211.25;5060252;27;65833;-34
2023/01/19 04:04:31;;;;;;;;;;;;;;;29.34;57.22;101202.97;5077229;27;70274;-37
2023/01/19 04:07:02;;;;;;;;;;;;;;;29.33;57.68;101204.81;5082856;27;65527;-36
2023/01/19 04:09:33;;;;;;;;;;;;;;;29.33;58.37;101196.69;5077830;27;70736;-35
2023/01/19 04:12:03;;;;;;;;;;;;;;;29.37;58.73;101195.28;5076043;27;66069;-37
2023/01/19 04:14:34;;;;;;;;;;;;;;;29.40;58.84;101199.44;5079624;27;70120;-38
2023/01/19 04:17:04;;;;;;;;;;;;;;;29.40;58.81;101185.94;5064839;27;66774;-36
2023/01/19 04:19:36;;;;;;;;;;;;;;;29.40;59.63;101186.75;5078611;27;70313;-36
2023/01/19 04:22:06;;;;;;;;;;;;;;;29.42;59.37;101181.16;5074178;27;67056;-35
2023/01/19 04:24:37;;;;;;;;;;;;;;;29.44;60.04;101179.06;5081034;27;70690;-37
2023/01/19 04:27:07;;;;;;;;;;;;;;;29.45;60.13;101179.91;5061689;27;65337;-36
2023/01/19 04:29:38;;;;;;;;;;;;;;;29.46;59.86;101170.78;5078588;27;71124;-37
2023/01/19 04:32:08;;;;;;;;;;;;;;;29.44;60.35;101164.72;5081859;27;65998;-37
2023/01/19 04:34:39;;;;;;;;;;;;;;;29.46;60.15;101163.50;5081745;27;69732;-35
2023/01/19 04:37:09;;;;;;;;;;;;;;;29.48;60.87;101152.50;5079316;27;67442;-35
2023/01/19 04:39:40;;;;;;;;;;;;;;;29.50;61.01;101147.69;5079174;27;71284;-36
2023/01/19 04:42:11;;;;;;;;;;;;;;;29.53;61.29;101139.16;5081073;27;66067;-40
2023/01/19 04:44:42;;;;;;;;;;;;;;;29.54;60.96;101130.03;5057114;28;68933;-39
2023/01/19 04:47:13;;;;;;;;;;;;;;;29.56;61.63;101127.94;5077200;27;65741;-36
2023/01/19 04:49:43;;;;;;;;;;;;;;;29.58;61.86;101120.47;5076388;27;70413;-36
2023/01/19 04:52:14;;;;;;;;;;;;;;;29.60;62.27;101118.41;5077479;27;66665;-37
2023/01/19 04:54:44;;;;;;;;;;;;;;;29.61;62.56;101115.50;5078569;27;69336;-38
2023/01/19 04:57:15;;;;;;;;;;;;;;;29.60;63.39;101103.00;5089236;27;65386;-39
2023/01/19 04:59:45;;;;;;;;;;;;;;;29.65;63.10;101105.13;5084941;27;70429;-36
2023/01/19 05:02:16;;;;;;;;;;;;;;;29.72;62.38;101103.25;5071872;27;66055;-35
2023/01/19 05:04:47;;;;;;;;;;;;;;;29.79;62.13;101100.56;5085203;27;69738;-36
2023/01/19 05:07:18;;;;;;;;;;;;;;;29.84;62.27;101093.50;5054691;28;66381;-36
2023/01/19 05:09:48;;;;;;;;;;;;;;;29.92;62.07;101083.50;5083964;27;69980;-38
2023/01/19 05:12:19;;;;;;;;;;;;;;;29.97;61.52;101081.00;5080361;27;66190;-39
2023/01/19 05:14:49;;;;;;;;;;;;;;;30.01;61.29;101076.84;5063785;27;70093;-38
2023/01/19 05:17:20;;;;;;;;;;;;;;;30.04;61.42;101060.19;5046129;28;66901;-39
2023/01/19 05:19:50;;;;;;;;;;;;;;;30.08;61.42;101053.31;5065255;28;70607;-35
2023/01/19 05:22:21;;;;;;;;;;;;;;;30.12;60.91;101043.75;5075207;28;65625;-37
2023/01/19 05:24:51;;;;;;;;;;;;;;;30.14;60.98;101030.81;5080411;27;70088;-36
2023/01/19 05:27:21;;;;;;;;;;;;;;;30.17;60.57;101034.97;5079121;28;65930;-38
2023/01/19 05:29:52;;;;;;;;;;;;;;;30.19;60.79;101025.59;5078519;28;69013;-37
2023/01/19 05:32:23;;;;;;;;;;;;;;;30.10;61.08;101026.06;5061045;28;66379;-37
2023/01/19 05:34:53;;;;;;;;;;;;;;;29.98;62.22;101017.75;5060141;28;69660;-37
2023/01/19 05:37:23;;;;;;;;;;;;;;;29.92;62.62;101007.75;5075640;27;66825;-37
2023/01/19 05:39:54;;;;;;;;;;;;;;;29.91;62.29;101008.81;5075317;27;67527;-37
2023/01/19 05:42:25;;;;;;;;;;;;;;;29.90;62.08;101004.47;5080216;27;65572;-42
2023/01/19 05:44:56;;;;;;;;;;;;;;;29.93;61.18;100999.44;5083331;27;69934;-36
2023/01/19 05:47:28;;;;;;;;;;;;;;;29.98;60.41;101001.53;5080990;27;66775;-41
2023/01/19 05:49:58;;;;;;;;;;;;;;;30.04;59.47;100995.28;5078656;27;69670;-41
2023/01/19 05:52:29;;;;;;;;;;;;;;;30.01;60.50;100982.19;5077446;27;66147;-36
2023/01/19 05:55:00;;;;;;;;;;;;;;;30.02;60.74;100970.31;5058016;27;69391;-37
2023/01/19 05:57:30;;;;;;;;;;;;;;;30.05;60.21;100972.56;5071936;27;67542;-38
2023/01/19 06:00:02;;;;;;;;;;;;;;;30.05;60.13;100965.28;5077160;27;70441;-37
2023/01/19 06:02:36;;;;;;;;;;;;;;;30.10;60.37;100961.97;5079602;27;65710;-37
2023/01/19 06:05:07;;;;;;;;;;;;;;;30.11;60.11;100958.19;5047766;27;69889;-37
2023/01/19 06:07:38;;;;;;;;;;;;;;;30.06;60.47;100958.00;5035299;27;65199;-38
2023/01/19 06:10:08;;;;;;;;;;;;;;;30.06;60.79;100955.28;5080326;27;70215;-39
2023/01/19 06:12:42;;;;;;;;;;;;;;;30.03;61.34;100951.16;5085572;27;67045;-38
2023/01/19 06:15:13;;;;;;;;;;;;;;;30.06;61.77;100947.19;5079252;27;70384;-40
2023/01/19 06:17:43;;;;;;;;;;;;;;;30.06;62.44;100942.63;5078743;27;65771;-39
2023/01/19 06:20:14;;;;;;;;;;;;;;;30.07;62.14;100927.22;5082288;27;71035;-39
2023/01/19 06:22:45;;;;;;;;;;;;;;;30.10;62.62;100920.56;5081176;27;66695;-39
2023/01/19 06:25:15;;;;;;;;;;;;;;;30.06;62.47;100912.00;5081509;27;70309;-38
2023/01/19 06:27:46;;;;;;;;;;;;;;;30.08;62.83;100914.53;5078483;27;66866;-37
2023/01/19 06:30:16;;;;;;;;;;;;;;;30.11;62.47;100903.25;5079836;27;70311;-37
2023/01/19 06:32:47;;;;;;;;;;;;;;;30.11;63.02;100898.69;5079584;27;66347;-37
2023/01/19 06:35:18;;;;;;;;;;;;;;;30.14;62.33;100897.41;5083287;27;70807;-37
2023/01/19 06:37:48;;;;;;;;;;;;;;;30.13;62.46;100891.19;5070350;27;66981;-37
2023/01/19 06:40:19;;;;;;;;;;;;;;;30.16;62.63;100893.47;5082986;27;69320;-38
2023/01/19 06:42:49;;;;;;;;;;;;;;;30.18;62.85;100883.25;5082624;27;66011;-37
2023/01/19 06:45:20;;;;;;;;;;;;;;;30.18;62.34;100877.84;5093057;27;69860;-38
2023/01/19 06:47:50;;;;;;;;;;;;;;;30.21;62.96;100869.28;5082500;27;65747;-38
2023/01/19 06:50:21;;;;;;;;;;;;;;;30.22;62.40;100868.28;5087607;27;70328;-39
2023/01/19 06:52:51;;;;;;;;;;;;;;;30.24;62.74;100860.78;5083831;27;66029;-38
2023/01/19 06:55:22;;;;;;;;;;;;;;;30.25;62.51;100851.59;5084665;27;69853;-37
2023/01/19 06:57:59;;;;;;;;;;;;;;;30.28;62.54;100851.19;5086051;27;66143;-41
2023/01/19 07:00:30;;;;;;;;;;;;;;;30.31;62.71;100843.66;5081199;27;70743;-37
2023/01/19 07:03:01;;;;;;;;;;;;;;;30.31;62.32;100839.06;5086512;27;66711;-40
2023/01/19 07:05:34;;;;;;;;;;;;;;;30.34;62.20;100835.09;5081440;27;70056;-41
2023/01/19 07:08:06;;;;;;;;;;;;;;;30.35;62.87;100829.50;5089099;27;65685;-40
2023/01/19 07:10:36;;;;;;;;;;;;;;;30.35;62.60;100832.19;5088717;27;70128;-37
2023/01/19 07:13:27;;;;;;;;;;;;;;;30.38;62.23;100833.63;5078763;27;67047;-40
2023/01/19 07:15:58;;;;;;;;;;;;;;;30.40;62.74;100831.56;5082323;27;69931;-38
2023/01/19 07:18:28;;;;;;;;;;;;;;;30.41;62.39;100833.19;5080296;27;66815;-37
2023/01/19 07:20:59;;;;;;;;;;;;;;;30.43;62.26;100825.69;5085745;27;70307;-38
2023/01/19 07:23:30;;;;;;;;;;;;;;;30.46;62.40;100825.25;5058853;28;66381;-39
2023/01/19 07:26:01;;;;;;;;;;;;;;;30.48;62.58;100831.28;5067590;27;69122;-41
2023/01/19 07:28:32;;;;;;;;;;;;;;;30.49;62.59;100824.81;5081164;27;66135;-38
2023/01/19 07:31:02;;;;;;;;;;;;;;;30.51;62.01;100825.44;5088065;27;70083;-38
2023/01/19 07:33:33;;;;;;;;;;;;;;;30.53;62.50;100820.63;5079202;27;65716;-43
2023/01/19 07:36:04;;;;;;;;;;;;;;;30.56;62.35;100830.19;5053956;27;70381;-39
2023/01/19 07:38:34;;;;;;;;;;;;;;;30.59;62.56;100825.19;5080089;27;65966;-40
2023/01/19 07:41:06;;;;;;;;;;;;;;;30.62;62.51;100821.16;5065169;27;69811;-39
2023/01/19 07:43:36;;;;;;;;;;;;;;;30.63;62.52;100825.56;5076257;27;66124;-40
2023/01/19 07:46:07;;;;;;;;;;;;;;;30.65;61.95;100821.59;5087388;27;69811;-38
2023/01/19 07:48:38;;;;;;;;;;;;;;;30.66;61.85;100819.69;5084199;27;66271;-38
2023/01/19 07:51:10;;;;;;;;;;;;;;;30.68;62.13;100826.56;5080106;27;70472;-39
2023/01/19 07:53:41;;;;;;;;;;;;;;;30.72;62.52;100824.22;5082158;27;66555;-39
2023/01/19 07:56:11;;;;;;;;;;;;;;;30.75;62.11;100822.97;5049940;27;69908;-39
2023/01/19 07:58:42;;;;;;;;;;;;;;;30.77;61.93;100821.69;5086781;27;66621;-39
2023/01/19 08:01:13;;;;;;;;;;;;;;;30.78;62.25;100819.81;5084699;27;70277;-41
2023/01/19 08:03:45;;;;;;;;;;;;;;;30.79;61.81;100824.19;5080309;27;66114;-41
2023/01/19 08:06:20;;;;;;;;;;;;;;;30.83;61.96;100820.00;5068637;27;70252;-39
2023/01/19 08:08:52;;;;;;;;;;;;;;;30.86;62.31;100827.69;5090804;27;66437;-41
2023/01/19 08:11:22;;;;;;;;;;;;;;;30.87;62.22;100829.34;5082997;27;70160;-38
2023/01/19 08:13:53;;;;;;;;;;;;;;;30.88;62.18;100834.53;5088750;27;66637;-39
2023/01/19 08:16:23;;;;;;;;;;;;;;;30.89;62.41;100836.19;5086087;27;70630;-38
2023/01/19 08:18:54;;;;;;;;;;;;;;;30.92;62.07;100834.91;5063796;27;66756;-37
2023/01/19 08:21:24;;;;;;;;;;;;;;;30.93;61.82;100836.59;5088265;27;69374;-38
2023/01/19 08:23:56;;;;;;;;;;;;;;;30.93;61.78;100823.88;5081003;27;65445;-37
2023/01/19 08:26:31;;;;;;;;;;;;;;;30.92;61.48;100824.09;5086482;27;70494;-37
2023/01/19 08:29:03;;;;;;;;;;;;;;;30.88;60.55;100817.47;5075431;27;65516;-38
2023/01/19 08:31:33;;;;;;;;;;;;;;;30.86;60.72;100824.97;5081995;27;70164;-39
2023/01/19 08:34:04;;;;;;;;;;;;;;;30.86;60.54;100823.09;5080520;27;66162;-37
2023/01/19 08:36:35;;;;;;;;;;;;;;;30.84;60.19;100827.91;5081130;27;69959;-38
2023/01/19 08:39:06;;;;;;;;;;;;;;;30.87;59.87;100832.03;5056393;28;64639;-39
2023/01/19 08:41:37;;;;;;;;;;;;;;;30.84;59.88;100833.34;5080167;27;70058;-39
2023/01/19 08:44:08;;;;;;;;;;;;;;;30.86;60.31;100830.38;5070061;27;65876;-37
2023/01/19 08:46:38;;;;;;;;;;;;;;;30.90;59.24;100834.34;5076973;27;70524;-36
2023/01/19 08:49:09;;;;;;;;;;;;;;;30.94;58.10;100835.53;5076775;27;66153;-37
2023/01/19 08:51:39;;;;;;;;;;;;;;;30.99;56.96;100841.13;5058824;28;69739;-40
2023/01/19 08:54:10;;;;;;;;;;;;;;;30.99;57.25;100833.00;5065714;27;66697;-38
2023/01/19 08:56:41;;;;;;;;;;;;;;;30.98;57.44;100842.19;5082093;27;69710;-40
2023/01/19 08:59:11;;;;;;;;;;;;;;;30.93;57.56;100842.00;5079167;27;66636;-37
2023/01/19 09:01:43;;;;;;;;;;;;;;;30.91;57.67;100844.94;5047856;28;69860;-39
2023/01/19 09:04:14;;;;;;;;;;;;;;;30.92;58.38;100856.59;5079021;27;66387;-39
2023/01/19 09:06:44;;;;;;;;;;;;;;;30.89;58.13;100847.03;5079363;27;70436;-41
2023/01/19 09:09:16;;;;;;;;;;;;;;;30.92;58.18;100834.91;5084033;27;67997;-37
2023/01/19 09:11:46;;;;;;;;;;;;;;;30.90;58.44;100837.88;5080670;27;69681;-38
2023/01/19 09:14:16;;;;;;;;;;;;;;;30.91;58.80;100833.28;5082765;27;67116;-38
2023/01/19 09:16:47;;;;;;;;;;;;;;;30.91;58.88;100846.81;5081302;27;68717;-38
2023/01/19 09:19:18;;;;;;;;;;;;;;;30.89;59.45;100843.50;5082871;27;65365;-38
2023/01/19 09:21:49;;;;;;;;;;;;;;;30.90;60.02;100848.69;5080510;27;70220;-39
2023/01/19 09:24:20;;;;;;;;;;;;;;;30.90;60.41;100847.88;5080434;27;65566;-38
2023/01/19 09:26:50;;;;;;;;;;;;;;;30.95;60.47;100845.31;5074848;27;70754;-38
2023/01/19 09:29:21;;;;;;;;;;;;;;;31.16;59.49;100853.03;5079189;27;66669;-38
2023/01/19 09:31:52;;;;;;;;;;;;;;;31.33;58.72;100857.88;5078757;27;70077;-38
2023/01/19 09:34:24;;;;;;;;;;;;;;;31.42;58.68;100861.16;5062736;28;65432;-38
2023/01/19 09:36:54;;;;;;;;;;;;;;;31.49;58.95;100857.34;5071738;27;70836;-38
2023/01/19 09:39:25;;;;;;;;;;;;;;;31.37;58.35;100848.28;5063431;27;66126;-38
2023/01/19 09:42:02;;;;;;;;;;;;;;;31.19;59.46;100859.91;5081948;28;69199;-38
2023/01/19 09:44:34;;;;;;;;;;;;;;;31.08;60.47;100850.59;5081643;27;65963;-37
2023/01/19 09:47:13;;;;;;;;;;;;;;;31.07;60.03;100848.97;5080474;27;68616;-38
2023/01/19 09:49:47;;;;;;;;;;;;;;;31.05;60.27;100861.06;5080074;28;66499;-41
2023/01/19 09:52:19;;;;;;;;;;;;;;;31.04;60.08;100868.38;5080067;27;70279;-39
2023/01/19 09:54:54;;;;;;;;;;;;;;;31.08;59.43;100866.03;5079424;27;66099;-38
2023/01/19 09:57:26;;;;;;;;;;;;;;;31.04;60.14;100868.38;5038545;28;70534;-37
2023/01/19 09:59:58;;;;;;;;;;;;;;;31.04;59.57;100862.97;5079650;27;65671;-38
2023/01/19 10:02:35;;;;;;;;;;;;;;;30.76;60.90;100825.47;5076972;27;70728;-36
2023/01/19 10:05:24;;;;;;;;;;;;;;;31.05;61.69;100867.31;5076757;28;65878;-38
2023/01/19 10:08:04;;;;;;;;;;;;;;;31.02;62.39;100867.75;5055314;28;70061;-37
2023/01/19 10:10:39;;;;;;;;;;;;;;;31.05;63.03;100869.19;5076007;27;66710;-37
2023/01/19 10:13:13;;;;;;;;;;;;;;;31.04;62.98;100862.13;5076170;27;69409;-38
2023/01/19 10:15:48;;;;;;;;;;;;;;;31.00;63.24;100869.03;5078335;28;65935;-39
2023/01/19 10:18:24;;;;;;;;;;;;;;;31.00;64.19;100869.03;5076408;27;70524;-38
2023/01/19 10:21:00;;;;;;;;;;;;;;;31.01;64.77;100873.38;5076341;28;65694;-38
2023/01/19 10:23:48;;;;;;;;;;;;;;;31.00;65.27;100886.09;5078210;27;70354;-38
2023/01/19 10:26:19;;;;;;;;;;;;;;;31.01;65.33;100890.50;5075759;27;65537;-38
2023/01/19 10:28:55;;;;;;;;;;;;;;;31.01;66.06;100886.94;5059414;28;68340;-38
2023/01/19 10:31:25;;;;;;;;;;;;;;;31.08;66.36;100888.53;5076326;27;65859;-37
2023/01/19 10:33:57;;;;;;;;;;;;;;;31.27;65.39;100891.31;5079954;27;70237;-38
2023/01/19 10:36:35;;;;;;;;;;;;;;;31.37;64.93;100897.06;5079641;27;66456;-37
2023/01/19 10:39:07;;;;;;;;;;;;;;;31.45;64.42;100894.06;5076076;27;70827;-38
2023/01/19 10:41:46;;;;;;;;;;;;;;;31.52;63.87;100891.31;5073578;28;67095;-40
2023/01/19 10:44:27;;;;;;;;;;;;;;;31.55;63.70;100907.94;5066915;27;70793;-37
2023/01/19 10:46:59;;;;;;;;;;;;;;;31.59;63.40;100903.75;5079080;27;66495;-37
2023/01/19 10:49:43;;;;;;;;;;;;;;;31.61;63.41;100903.50;5084224;27;70701;-38
2023/01/19 10:52:32;;;;;;;;;;;;;;;31.63;63.41;100909.53;5064218;27;66183;-40
2023/01/19 10:55:04;;;;;;;;;;;;;;;31.63;63.16;100909.53;5077338;27;69946;-37
2023/01/19 10:57:37;;;;;;;;;;;;;;;31.65;63.27;100909.28;5079210;27;66706;-38
2023/01/19 11:00:27;;;;;;;;;;;;;;;31.66;63.28;100919.94;5078982;28;70667;-39
2023/01/19 11:02:57;;;;;;;;;;;;;;;31.66;63.09;100932.66;5076444;27;66939;-38
2023/01/19 11:05:30;;;;;;;;;;;;;;;31.65;63.12;100937.25;5079868;28;70061;-36
2023/01/19 11:08:00;;;;;;;;;;;;;;;31.50;62.53;100948.44;5078337;27;66041;-38
2023/01/19 11:10:32;;;;;;;;;;;;;;;31.28;63.38;100952.56;5070010;27;70119;-41
2023/01/19 11:13:20;;;;;;;;;;;;;;;31.14;63.62;100944.53;5076974;27;65430;-37
2023/01/19 11:15:53;;;;;;;;;;;;;;;31.05;63.55;100954.00;5040797;28;69800;-37
2023/01/19 11:18:27;;;;;;;;;;;;;;;31.00;64.03;100964.66;5073458;27;66660;-40
2023/01/19 11:21:01;;;;;;;;;;;;;;;31.00;64.59;100966.56;5080934;27;69919;-37
2023/01/19 11:23:44;;;;;;;;;;;;;;;30.95;64.57;100964.50;5077898;27;66649;-36
2023/01/19 11:26:25;;;;;;;;;;;;;;;30.93;64.71;100977.44;5076208;27;69952;-38
2023/01/19 11:28:56;;;;;;;;;;;;;;;30.89;64.48;100973.50;5066185;27;66187;-36
2023/01/19 11:31:27;;;;;;;;;;;;;;;30.89;64.76;100978.91;5053905;28;70284;-37
2023/01/19 11:33:58;;;;;;;;;;;;;;;30.87;64.98;100994.53;5077568;27;66591;-36
2023/01/19 11:36:35;;;;;;;;;;;;;;;30.86;64.95;100987.47;5081311;27;69934;-37
2023/01/19 11:39:26;;;;;;;;;;;;;;;30.87;65.31;100987.28;5077002;27;66890;-37
2023/01/19 11:42:01;;;;;;;;;;;;;;;30.86;65.52;100982.06;5074411;27;69564;-35
2023/01/19 11:44:41;;;;;;;;;;;;;;;30.86;65.94;100992.91;5076962;27;66258;-37
2023/01/19 11:47:15;;;;;;;;;;;;;;;30.88;66.20;100996.22;5069875;27;69513;-37
2023/01/19 11:49:48;;;;;;;;;;;;;;;30.85;66.32;101002.09;5083287;27;66710;-36
2023/01/19 11:52:32;;;;;;;;;;;;;;;30.86;65.81;101006.44;5077737;27;69800;-37
2023/01/19 11:55:13;;;;;;;;;;;;;;;30.85;66.58;101008.31;5079499;27;66575;-38
2023/01/19 11:57:48;;;;;;;;;;;;;;;30.86;66.38;101011.84;5075185;27;69176;-38
2023/01/19 12:00:24;;;;;;;;;;;;;;;30.84;66.42;101008.53;5074073;27;66766;-37
2023/01/19 12:02:58;;;;;;;;;;;;;;;30.84;66.48;101019.34;5079479;27;70172;-37
2023/01/19 12:05:31;;;;;;;;;;;;;;;30.85;66.87;101012.91;5072733;27;66679;-37
2023/01/19 12:08:05;;;;;;;;;;;;;;;30.85;67.30;101024.56;5081306;27;70095;-36
2023/01/19 12:10:40;;;;;;;;;;;;;;;30.85;67.13;101024.56;5074093;27;66471;-38
2023/01/19 12:13:18;;;;;;;;;;;;;;;30.87;67.40;101032.47;5077994;27;70743;-39
2023/01/19 12:15:59;;;;;;;;;;;;;;;30.84;67.19;101028.34;5074300;27;66732;-36
2023/01/19 12:18:33;;;;;;;;;;;;;;;30.85;68.53;101024.56;5075251;27;69643;-38
2023/01/19 12:21:03;;;;;;;;;;;;;;;30.86;68.12;101020.81;5073464;27;66132;-40
2023/01/19 12:23:40;;;;;;;;;;;;;;;30.84;68.77;101028.34;5075657;27;69518;-39
2023/01/19 12:26:23;;;;;;;;;;;;;;;30.84;68.68;101030.19;5075270;27;66428;-38
2023/01/19 12:28:57;;;;;;;;;;;;;;;30.83;68.97;101033.97;5067081;27;69701;-38
2023/01/19 12:31:27;;;;;;;;;;;;;;;30.82;69.14;101029.59;5076205;27;66823;-37
2023/01/19 12:34:19;;;;;;;;;;;;;;;30.81;69.30;101049.59;5072972;27;69930;-38
2023/01/19 12:36:49;;;;;;;;;;;;;;;30.82;68.94;101051.25;5076867;27;65491;-38
2023/01/19 12:39:21;;;;;;;;;;;;;;;30.82;69.20;101053.97;5077001;28;70428;-36
2023/01/19 12:42:11;;;;;;;;;;;;;;;30.81;69.91;101061.25;5080159;27;66418;-37
2023/01/19 12:44:43;;;;;;;;;;;;;;;30.81;70.43;101055.00;5066124;27;69932;-38
2023/01/19 12:47:14;;;;;;;;;;;;;;;30.80;70.11;101059.59;5075175;27;66584;-38
2023/01/19 12:49:49;;;;;;;;;;;;;;;30.79;69.88;101060.63;5080041;27;70676;-39
2023/01/19 12:52:50;;;;;;;;;;;;;;;30.79;70.74;101073.34;5050962;28;65238;-38
2023/01/19 12:55:23;;;;;;;;;;;;;;;30.79;70.78;101073.34;5075938;27;70167;-37
2023/01/19 12:58:06;;;;;;;;;;;;;;;30.77;70.49;101078.13;5074220;27;65571;-38
2023/01/19 13:00:41;;;;;;;;;;;;;;;30.76;70.44;101073.75;5045969;28;70220;-39
2023/01/19 13:03:18;;;;;;;;;;;;;;;30.73;69.81;101075.03;5075529;27;66905;-37
2023/01/19 13:05:51;;;;;;;;;;;;;;;30.69;70.21;101069.19;5080994;27;69976;-39
2023/01/19 13:08:23;;;;;;;;;;;;;;;30.67;70.09;101070.44;5062648;27;65498;-39
2023/01/19 13:11:01;;;;;;;;;;;;;;;30.66;70.57;101074.22;5076328;27;69839;-39
2023/01/19 13:13:31;;;;;;;;;;;;;;;30.63;70.63;101070.06;5080826;27;65761;-40
2023/01/19 13:16:23;;;;;;;;;;;;;;;30.61;70.74;101082.13;5078183;27;69427;-40
2023/01/19 13:18:56;;;;;;;;;;;;;;;30.58;70.35;101077.97;5083326;27;65544;-39